createdAt,value
2018-10-19T00:00:31.778Z,8.85
2018-10-19T00:01:31.678Z,8.86
2018-10-19T00:02:31.676Z,8.83
2018-10-19T00:03:31.650Z,8.86
2018-10-19T00:04:31.646Z,8.81
2018-10-19T00:05:31.625Z,8.80
2018-10-19T00:06:31.726Z,8.85
2018-10-19T00:07:31.605Z,8.85
2018-10-19T00:08:31.634Z,8.78
2018-10-19T00:09:31.588Z,8.67
2018-10-19T00:10:31.572Z,8.70
2018-10-19T00:11:31.568Z,8.71
2018-10-19T00:12:31.602Z,8.67
2018-10-19T00:13:31.542Z,8.60
2018-10-19T00:14:31.542Z,8.59
2018-10-19T00:15:31.530Z,8.53
2018-10-19T00:16:31.510Z,8.53
2018-10-19T00:17:31.496Z,8.50
2018-10-19T00:18:31.544Z,8.59
2018-10-19T00:19:31.475Z,8.56
2018-10-19T00:20:31.463Z,8.56
2018-10-19T00:21:31.467Z,8.53
2018-10-19T00:22:31.441Z,8.52
2018-10-19T00:23:31.430Z,8.52
2018-10-19T00:24:31.459Z,8.62
2018-10-19T00:25:31.407Z,8.57
2018-10-19T00:26:31.398Z,8.60
2018-10-19T00:27:31.410Z,8.60
2018-10-19T00:28:31.386Z,8.53
2018-10-19T00:29:31.365Z,8.55
2018-10-19T00:30:31.390Z,8.55
2018-10-19T00:31:31.340Z,8.55
2018-10-19T00:32:31.339Z,8.59
2018-10-19T00:33:31.340Z,8.59
2018-10-19T00:34:31.309Z,8.62
2018-10-19T00:35:31.298Z,8.56
2018-10-19T00:36:31.368Z,8.50
2018-10-19T00:37:31.278Z,8.50
2018-10-19T00:38:31.268Z,8.46
2018-10-19T00:39:31.274Z,8.44
2018-10-19T00:40:31.245Z,8.39
2018-10-19T00:41:31.284Z,8.37
2018-10-19T00:42:31.269Z,8.29
2018-10-19T00:43:31.212Z,8.41
2018-10-19T00:44:31.200Z,8.32
2018-10-19T00:45:31.219Z,8.26
2018-10-19T00:46:31.184Z,8.34
2018-10-19T00:47:31.167Z,8.31
2018-10-19T00:48:31.227Z,8.34
2018-10-19T00:49:31.163Z,8.38
2018-10-19T00:50:31.147Z,8.32
2018-10-19T00:51:31.192Z,8.34
2018-10-19T00:52:31.119Z,8.26
2018-10-19T00:53:31.105Z,8.24
2018-10-19T00:54:31.142Z,8.19
2018-10-19T00:55:31.083Z,8.19
2018-10-19T00:56:31.074Z,8.21
2018-10-19T00:57:31.116Z,8.20
2018-10-19T00:58:31.052Z,8.29
2018-10-19T00:59:31.045Z,8.28
2018-10-19T01:00:31.078Z,8.29
2018-10-19T01:01:31.021Z,8.20
2018-10-19T01:02:31.006Z,8.23
2018-10-19T01:03:31.013Z,8.23
2018-10-19T01:04:30.991Z,8.28
2018-10-19T01:05:30.975Z,8.14
2018-10-19T01:06:31.008Z,8.12
2018-10-19T01:07:30.957Z,8.16
2018-10-19T01:08:30.938Z,8.20
2018-10-19T01:09:30.936Z,8.24
2018-10-19T01:10:30.927Z,8.19
2018-10-19T01:11:30.907Z,8.28
2018-10-19T01:12:30.943Z,8.28
2018-10-19T01:13:30.889Z,8.23
2018-10-19T01:14:30.872Z,8.31
2018-10-19T01:15:30.866Z,8.32
2018-10-19T01:16:30.855Z,8.31
2018-10-19T01:17:30.850Z,8.32
2018-10-19T01:18:30.880Z,8.38
2018-10-19T01:19:30.825Z,8.26
2018-10-19T01:20:30.813Z,8.31
2018-10-19T01:21:30.799Z,8.42
2018-10-19T01:22:30.789Z,8.39
2018-10-19T01:23:30.787Z,8.41
2018-10-19T01:24:30.818Z,8.46
2018-10-19T01:25:30.762Z,8.49
2018-10-19T01:26:30.745Z,8.55
2018-10-19T01:27:30.735Z,8.59
2018-10-19T01:28:30.729Z,8.65
2018-10-19T01:29:30.710Z,8.57
2018-10-19T01:30:30.735Z,8.57
2018-10-19T01:31:30.688Z,8.57
2018-10-19T01:32:30.678Z,8.62
2018-10-19T01:33:30.668Z,8.70
2018-10-19T01:34:30.672Z,8.70
2018-10-19T01:35:30.649Z,8.77
2018-10-19T01:36:30.674Z,8.86
2018-10-19T01:37:30.625Z,8.89
2018-10-19T01:38:30.614Z,8.90
2018-10-19T01:39:30.606Z,8.81
2018-10-19T01:40:30.590Z,8.95
2018-10-19T01:41:30.611Z,8.95
2018-10-19T01:42:30.619Z,8.99
2018-10-19T01:43:30.558Z,9.04
2018-10-19T01:44:30.547Z,9.08
2018-10-19T01:45:30.535Z,9.12
2018-10-19T01:46:30.526Z,9.14
2018-10-19T01:47:30.542Z,9.12
2018-10-19T01:48:30.563Z,9.11
2018-10-19T01:49:30.539Z,9.16
2018-10-19T01:50:30.482Z,9.22
2018-10-19T01:51:30.473Z,9.19
2018-10-19T01:52:30.458Z,9.23
2018-10-19T01:53:30.454Z,9.24
2018-10-19T01:54:30.487Z,9.29
2018-10-19T01:55:30.423Z,9.29
2018-10-19T01:56:30.417Z,9.34
2018-10-19T01:57:30.405Z,9.37
2018-10-19T01:58:30.394Z,9.37
2018-10-19T01:59:30.387Z,9.37
2018-10-19T02:00:30.437Z,9.44
2018-10-19T02:01:30.373Z,9.47
2018-10-19T02:02:30.348Z,9.41
2018-10-19T02:03:30.338Z,9.45
2018-10-19T02:04:30.327Z,9.55
2018-10-19T02:05:30.317Z,9.60
2018-10-19T02:06:30.356Z,9.54
2018-10-19T02:07:30.297Z,9.54
2018-10-19T02:08:30.283Z,9.63
2018-10-19T02:09:30.273Z,9.66
2018-10-19T02:10:30.264Z,9.55
2018-10-19T02:11:30.252Z,9.70
2018-10-19T02:12:30.322Z,9.69
2018-10-19T02:13:30.229Z,9.63
2018-10-19T02:14:30.218Z,9.69
2018-10-19T02:15:30.207Z,9.63
2018-10-19T02:16:30.196Z,9.72
2018-10-19T02:17:30.187Z,9.67
2018-10-19T02:18:30.220Z,9.80
2018-10-19T02:19:30.165Z,9.67
2018-10-19T02:20:30.150Z,9.73
2018-10-19T02:21:30.140Z,9.77
2018-10-19T02:22:30.132Z,9.77
2018-10-19T02:23:30.128Z,9.85
2018-10-19T02:24:30.144Z,9.85
2018-10-19T02:25:30.114Z,9.88
2018-10-19T02:26:30.089Z,9.88
2018-10-19T02:27:30.074Z,9.91
2018-10-19T02:28:30.065Z,9.91
2018-10-19T02:29:30.057Z,9.96
2018-10-19T02:30:30.093Z,9.87
2018-10-19T02:31:30.046Z,10.01
2018-10-19T02:32:30.039Z,9.99
2018-10-19T02:33:30.017Z,9.98
2018-10-19T02:34:29.997Z,9.98
2018-10-19T02:35:29.987Z,9.98
2018-10-19T02:36:30.025Z,9.99
2018-10-19T02:37:29.966Z,10.03
2018-10-19T02:38:29.970Z,10.01
2018-10-19T02:39:29.944Z,10.03
2018-10-19T02:40:29.934Z,10.01
2018-10-19T02:41:29.922Z,10.03
2018-10-19T02:42:30.038Z,10.01
2018-10-19T02:43:29.897Z,10.02
2018-10-19T02:44:29.891Z,9.94
2018-10-19T02:45:29.880Z,10.02
2018-10-19T02:46:29.868Z,10.03
2018-10-19T02:47:29.856Z,10.02
2018-10-19T02:48:29.882Z,9.99
2018-10-19T02:49:29.840Z,9.96
2018-10-19T02:50:29.826Z,9.98
2018-10-19T02:51:29.815Z,9.98
2018-10-19T02:52:29.798Z,10.03
2018-10-19T02:53:29.793Z,9.98
2018-10-19T02:54:29.816Z,10.01
2018-10-19T02:55:29.768Z,9.98
2018-10-19T02:56:29.767Z,9.99
2018-10-19T02:57:29.760Z,10.03
2018-10-19T02:58:29.752Z,10.09
2018-10-19T02:59:29.740Z,9.96
2018-10-19T03:00:29.754Z,10.02
2018-10-19T03:01:29.714Z,10.03
2018-10-19T03:02:29.703Z,10.06
2018-10-19T03:03:29.679Z,10.06
2018-10-19T03:04:29.672Z,9.99
2018-10-19T03:05:29.687Z,10.01
2018-10-19T03:06:29.690Z,10.02
2018-10-19T03:07:29.666Z,10.01
2018-10-19T03:08:29.640Z,10.01
2018-10-19T03:09:29.630Z,10.03
2018-10-19T03:10:29.633Z,10.01
2018-10-19T03:11:29.679Z,10.03
2018-10-19T03:12:29.651Z,10.03
2018-10-19T03:13:29.604Z,10.06
2018-10-19T03:14:29.567Z,10.10
2018-10-19T03:15:29.557Z,10.20
2018-10-19T03:16:29.537Z,10.14
2018-10-19T03:17:29.526Z,10.06
2018-10-19T03:18:29.563Z,10.20
2018-10-19T03:19:29.545Z,10.17
2018-10-19T03:20:29.493Z,10.10
2018-10-19T03:21:29.483Z,10.14
2018-10-19T03:22:29.472Z,10.20
2018-10-19T03:23:29.463Z,10.20
2018-10-19T03:24:29.488Z,10.21
2018-10-19T03:25:29.487Z,10.21
2018-10-19T03:26:29.437Z,10.21
2018-10-19T03:27:29.415Z,10.27
2018-10-19T03:28:29.405Z,10.21
2018-10-19T03:29:29.392Z,10.21
2018-10-19T03:30:29.416Z,10.28
2018-10-19T03:31:29.394Z,10.26
2018-10-19T03:32:29.361Z,10.24
2018-10-19T03:33:29.347Z,10.23
2018-10-19T03:34:29.342Z,10.20
2018-10-19T03:35:29.326Z,10.27
2018-10-19T03:36:29.350Z,10.35
2018-10-19T03:37:29.304Z,10.27
2018-10-19T03:38:29.296Z,10.28
2018-10-19T03:39:29.290Z,10.31
2018-10-19T03:40:29.272Z,10.34
2018-10-19T03:41:29.262Z,10.31
2018-10-19T03:42:29.289Z,10.30
2018-10-19T03:43:29.239Z,10.31
2018-10-19T03:44:29.231Z,10.34
2018-10-19T03:45:29.235Z,10.35
2018-10-19T03:46:29.211Z,10.28
2018-10-19T03:47:29.196Z,10.28
2018-10-19T03:48:29.221Z,10.34
2018-10-19T03:49:29.173Z,10.30
2018-10-19T03:50:29.160Z,10.36
2018-10-19T03:51:29.172Z,10.28
2018-10-19T03:52:29.205Z,10.28
2018-10-19T03:53:29.127Z,10.35
2018-10-19T03:54:29.151Z,10.35
2018-10-19T03:55:29.104Z,10.31
2018-10-19T03:56:29.095Z,10.30
2018-10-19T03:57:29.082Z,10.28
2018-10-19T03:58:29.073Z,10.30
2018-10-19T03:59:29.062Z,10.35
2018-10-19T04:00:29.094Z,10.36
2018-10-19T04:01:29.059Z,10.28
2018-10-19T04:02:29.032Z,10.20
2018-10-19T04:03:29.064Z,10.21
2018-10-19T04:04:29.178Z,10.17
2018-10-19T04:05:29.002Z,10.20
2018-10-19T04:06:29.049Z,10.26
2018-10-19T04:07:28.974Z,10.08
2018-10-19T04:08:28.961Z,10.12
2018-10-19T04:09:28.954Z,10.16
2018-10-19T04:10:28.947Z,10.09
2018-10-19T04:11:28.936Z,10.18
2018-10-19T04:12:28.987Z,10.12
2018-10-19T04:13:28.939Z,10.09
2018-10-19T04:14:28.901Z,10.17
2018-10-19T04:15:28.892Z,10.16
2018-10-19T04:16:28.892Z,10.12
2018-10-19T04:17:28.864Z,10.17
2018-10-19T04:18:28.901Z,10.17
2018-10-19T04:19:28.856Z,10.14
2018-10-19T04:20:28.836Z,10.17
2018-10-19T04:21:28.849Z,10.08
2018-10-19T04:22:28.822Z,10.14
2018-10-19T04:23:28.805Z,10.10
2018-10-19T04:24:28.831Z,10.09
2018-10-19T04:25:28.787Z,10.03
2018-10-19T04:26:28.780Z,10.06
2018-10-19T04:27:28.803Z,10.08
2018-10-19T04:28:28.752Z,10.02
2018-10-19T04:29:28.770Z,10.14
2018-10-19T04:30:28.777Z,10.06
2018-10-19T04:31:28.716Z,10.14
2018-10-19T04:32:28.715Z,10.14
2018-10-19T04:33:28.689Z,10.17
2018-10-19T04:34:28.690Z,10.08
2018-10-19T04:35:28.669Z,10.12
2018-10-19T04:36:28.720Z,10.09
2018-10-19T04:37:28.659Z,10.10
2018-10-19T04:38:28.646Z,10.14
2018-10-19T04:39:28.629Z,10.12
2018-10-19T04:40:28.632Z,10.18
2018-10-19T04:41:28.628Z,10.10
2018-10-19T04:42:28.742Z,10.10
2018-10-19T04:43:28.581Z,10.16
2018-10-19T04:44:28.568Z,10.08
2018-10-19T04:45:28.650Z,10.10
2018-10-19T04:46:28.551Z,10.06
2018-10-19T04:47:28.571Z,10.12
2018-10-19T04:48:28.567Z,10.16
2018-10-19T04:49:28.517Z,10.23
2018-10-19T04:50:28.517Z,10.18
2018-10-19T04:51:28.530Z,10.21
2018-10-19T04:52:28.484Z,10.17
2018-10-19T04:53:28.516Z,10.21
2018-10-19T04:54:28.515Z,10.20
2018-10-19T04:55:28.452Z,10.18
2018-10-19T04:56:28.446Z,10.21
2018-10-19T04:57:28.431Z,10.21
2018-10-19T04:58:28.422Z,10.23
2018-10-19T04:59:28.409Z,10.21
2018-10-19T05:00:28.451Z,10.21
2018-10-19T05:01:28.388Z,10.23
2018-10-19T05:02:29.387Z,10.26
2018-10-19T05:03:28.361Z,10.26
2018-10-19T05:04:28.383Z,10.35
2018-10-19T05:05:28.504Z,10.31
2018-10-19T05:06:28.446Z,10.31
2018-10-19T05:07:28.338Z,10.34
2018-10-19T05:08:28.322Z,10.28
2018-10-19T05:09:28.300Z,10.28
2018-10-19T05:10:28.291Z,10.35
2018-10-19T05:11:28.275Z,10.31
2018-10-19T05:12:28.357Z,10.38
2018-10-19T05:13:28.264Z,10.35
2018-10-19T05:14:35.787Z,10.30
2018-10-19T05:15:35.777Z,10.30
2018-10-19T05:16:35.765Z,10.31
2018-10-19T05:17:36.993Z,10.26
2018-10-19T05:18:28.197Z,10.28
2018-10-19T05:19:28.189Z,10.31
2018-10-19T05:20:28.176Z,10.31
2018-10-19T05:21:28.165Z,10.31
2018-10-19T05:22:28.154Z,10.23
2018-10-19T05:23:28.180Z,10.24
2018-10-19T05:24:28.183Z,10.23
2018-10-19T05:25:28.173Z,10.31
2018-10-19T05:26:28.114Z,10.30
2018-10-19T05:27:28.102Z,10.21
2018-10-19T05:28:28.097Z,10.27
2018-10-19T05:29:28.124Z,10.28
2018-10-19T05:30:28.085Z,10.35
2018-10-19T05:31:28.061Z,10.27
2018-10-19T05:32:28.090Z,10.31
2018-10-19T05:33:28.052Z,10.30
2018-10-19T05:34:28.026Z,10.23
2018-10-19T05:35:28.065Z,10.26
2018-10-19T05:36:28.005Z,10.24
2018-10-19T05:37:28.003Z,10.30
2018-10-19T05:38:28.003Z,10.20
2018-10-19T05:39:27.980Z,10.35
2018-10-19T05:40:27.966Z,10.30
2018-10-19T05:41:28.003Z,10.31
2018-10-19T05:42:27.942Z,10.23
2018-10-19T05:43:27.986Z,10.23
2018-10-19T05:44:27.921Z,10.24
2018-10-19T05:45:27.920Z,10.23
2018-10-19T05:46:27.893Z,10.28
2018-10-19T05:47:27.932Z,10.26
2018-10-19T05:48:27.872Z,10.34
2018-10-19T05:49:27.862Z,10.26
2018-10-19T05:50:27.863Z,10.30
2018-10-19T05:51:27.842Z,10.21
2018-10-19T05:52:27.827Z,10.26
2018-10-19T05:53:27.862Z,10.31
2018-10-19T05:54:27.827Z,10.27
2018-10-19T05:55:27.796Z,10.30
2018-10-19T05:56:27.788Z,10.21
2018-10-19T05:57:27.776Z,10.24
2018-10-19T05:58:27.768Z,10.30
2018-10-19T05:59:27.823Z,10.21
2018-10-19T06:00:27.801Z,10.14
2018-10-19T06:01:27.740Z,10.14
2018-10-19T06:02:27.800Z,10.02
2018-10-19T06:03:27.724Z,10.09
2018-10-19T06:04:27.697Z,10.05
2018-10-19T06:05:27.769Z,10.08
2018-10-19T06:06:27.682Z,10.20
2018-10-19T06:07:27.670Z,10.06
2018-10-19T06:08:27.660Z,10.14
2018-10-19T06:09:27.649Z,10.17
2018-10-19T06:10:27.645Z,10.09
2018-10-19T06:11:27.664Z,10.21
2018-10-19T06:12:27.621Z,10.23
2018-10-19T06:13:27.641Z,10.21
2018-10-19T06:14:27.593Z,10.17
2018-10-19T06:15:27.592Z,10.23
2018-10-19T06:16:27.569Z,10.35
2018-10-19T06:17:27.605Z,10.23
2018-10-19T06:18:27.551Z,10.31
2018-10-19T06:19:27.537Z,10.28
2018-10-19T06:20:27.525Z,10.35
2018-10-19T06:21:27.606Z,10.26
2018-10-19T06:22:27.513Z,10.41
2018-10-19T06:23:27.567Z,10.43
2018-10-19T06:24:27.477Z,10.41
2018-10-19T06:25:27.469Z,10.35
2018-10-19T06:26:27.612Z,10.39
2018-10-19T06:27:27.472Z,10.36
2018-10-19T06:28:27.448Z,10.34
2018-10-19T06:29:27.466Z,10.35
2018-10-19T06:30:27.456Z,10.48
2018-10-19T06:31:27.407Z,10.49
2018-10-19T06:32:27.397Z,10.54
2018-10-19T06:33:27.399Z,10.57
2018-10-19T06:34:27.376Z,10.55
2018-10-19T06:35:27.401Z,10.62
2018-10-19T06:36:27.360Z,10.57
2018-10-19T06:37:27.338Z,10.58
2018-10-19T06:38:27.365Z,10.54
2018-10-19T06:39:27.330Z,10.52
2018-10-19T06:40:27.311Z,10.64
2018-10-19T06:41:27.352Z,10.58
2018-10-19T06:42:27.289Z,10.55
2018-10-19T06:43:27.275Z,10.70
2018-10-19T06:44:27.265Z,10.61
2018-10-19T06:45:27.271Z,10.68
2018-10-19T06:46:27.263Z,10.70
2018-10-19T06:47:27.295Z,10.76
2018-10-19T06:48:27.227Z,10.73
2018-10-19T06:49:27.216Z,10.76
2018-10-19T06:50:27.195Z,10.85
2018-10-19T06:51:27.210Z,10.83
2018-10-19T06:52:27.180Z,10.91
2018-10-19T06:53:27.228Z,10.78
2018-10-19T06:54:27.160Z,10.93
2018-10-19T06:55:27.149Z,10.93
2018-10-19T06:56:27.154Z,10.91
2018-10-19T06:57:27.124Z,10.95
2018-10-19T06:58:27.109Z,11.01
2018-10-19T06:59:27.232Z,11.04
2018-10-19T07:00:27.098Z,11.11
2018-10-19T07:01:27.102Z,11.05
2018-10-19T07:02:27.084Z,11.09
2018-10-19T07:03:27.060Z,11.20
2018-10-19T07:04:27.051Z,11.22
2018-10-19T07:05:27.101Z,11.22
2018-10-19T07:06:27.027Z,11.20
2018-10-19T07:07:27.033Z,11.31
2018-10-19T07:08:27.083Z,11.34
2018-10-19T07:09:26.992Z,11.34
2018-10-19T07:10:26.981Z,11.31
2018-10-19T07:11:27.037Z,11.38
2018-10-19T07:12:26.960Z,11.40
2018-10-19T07:13:26.951Z,11.45
2018-10-19T07:14:26.956Z,11.33
2018-10-19T07:15:26.927Z,11.38
2018-10-19T07:16:26.915Z,11.31
2018-10-19T07:17:26.975Z,11.38
2018-10-19T07:18:26.893Z,11.19
2018-10-19T07:19:26.897Z,11.34
2018-10-19T07:20:26.901Z,11.30
2018-10-19T07:21:26.861Z,11.37
2018-10-19T07:22:26.852Z,11.27
2018-10-19T07:23:26.888Z,11.31
2018-10-19T07:24:26.845Z,11.43
2018-10-19T07:25:26.822Z,11.38
2018-10-19T07:26:26.808Z,11.40
2018-10-19T07:27:26.818Z,11.40
2018-10-19T07:28:26.791Z,11.49
2018-10-19T07:29:26.857Z,11.49
2018-10-19T07:30:26.767Z,11.48
2018-10-19T07:31:26.751Z,11.49
2018-10-19T07:32:26.744Z,11.52
2018-10-19T07:33:26.738Z,11.51
2018-10-19T07:34:26.717Z,11.46
2018-10-19T07:35:26.749Z,11.55
2018-10-19T07:36:26.785Z,11.51
2018-10-19T07:37:26.693Z,11.58
2018-10-19T07:38:26.680Z,11.61
2018-10-19T07:39:26.684Z,11.59
2018-10-19T07:40:26.654Z,11.64
2018-10-19T07:41:26.678Z,11.70
2018-10-19T07:42:26.793Z,11.67
2018-10-19T07:43:26.621Z,11.66
2018-10-19T07:44:26.616Z,11.67
2018-10-19T07:45:26.618Z,11.73
2018-10-19T07:46:26.587Z,11.66
2018-10-19T07:47:26.686Z,11.71
2018-10-19T07:48:26.579Z,11.76
2018-10-19T07:49:26.560Z,11.77
2018-10-19T07:50:26.540Z,11.77
2018-10-19T07:51:26.541Z,11.80
2018-10-19T07:52:26.532Z,11.70
2018-10-19T07:53:26.547Z,11.77
2018-10-19T07:54:26.522Z,11.66
2018-10-19T07:55:26.496Z,11.79
2018-10-19T07:56:26.476Z,11.77
2018-10-19T07:57:26.489Z,11.82
2018-10-19T07:58:26.451Z,11.80
2018-10-19T07:59:26.525Z,11.97
2018-10-19T08:00:26.463Z,12.00
2018-10-19T08:01:26.427Z,11.99
2018-10-19T08:02:26.413Z,11.97
2018-10-19T08:03:26.396Z,11.95
2018-10-19T08:04:26.382Z,12.03
2018-10-19T08:05:26.432Z,11.99
2018-10-19T08:06:26.362Z,12.08
2018-10-19T08:07:26.356Z,12.21
2018-10-19T08:08:26.338Z,12.15
2018-10-19T08:09:26.327Z,12.21
2018-10-19T08:10:26.316Z,12.22
2018-10-19T08:11:26.352Z,12.10
2018-10-19T08:12:26.310Z,12.13
2018-10-19T08:13:26.286Z,12.18
2018-10-19T08:14:26.277Z,12.18
2018-10-19T08:15:26.259Z,12.18
2018-10-19T08:16:26.249Z,12.14
2018-10-19T08:17:26.272Z,12.23
2018-10-19T08:18:26.238Z,12.40
2018-10-19T08:19:26.217Z,12.40
2018-10-19T08:20:26.212Z,12.46
2018-10-19T08:21:26.352Z,12.59
2018-10-19T08:22:26.183Z,12.58
2018-10-19T08:23:26.211Z,12.53
2018-10-19T08:24:26.183Z,12.63
2018-10-19T08:25:26.171Z,12.66
2018-10-19T08:26:26.139Z,12.77
2018-10-19T08:27:26.272Z,12.81
2018-10-19T08:28:26.117Z,12.77
2018-10-19T08:29:26.145Z,12.80
2018-10-19T08:30:26.096Z,12.76
2018-10-19T08:31:26.086Z,12.87
2018-10-19T08:32:26.108Z,12.83
2018-10-19T08:33:26.066Z,12.93
2018-10-19T08:34:26.050Z,12.98
2018-10-19T08:35:26.083Z,12.99
2018-10-19T08:36:26.030Z,12.98
2018-10-19T08:37:26.026Z,12.95
2018-10-19T08:38:26.029Z,13.01
2018-10-19T08:39:26.006Z,13.08
2018-10-19T08:40:25.988Z,13.02
2018-10-19T08:41:26.147Z,13.08
2018-10-19T08:42:25.968Z,13.14
2018-10-19T08:43:25.958Z,13.17
2018-10-19T08:44:25.959Z,13.14
2018-10-19T08:45:25.937Z,13.13
2018-10-19T08:46:25.923Z,13.20
2018-10-19T08:47:25.954Z,13.26
2018-10-19T08:48:25.899Z,13.23
2018-10-19T08:49:25.921Z,13.24
2018-10-19T08:50:25.886Z,13.26
2018-10-19T08:51:25.865Z,13.30
2018-10-19T08:52:25.858Z,13.23
2018-10-19T08:53:25.922Z,13.32
2018-10-19T08:54:25.840Z,13.35
2018-10-19T08:55:25.875Z,13.40
2018-10-19T08:56:25.822Z,13.36
2018-10-19T08:57:25.801Z,13.45
2018-10-19T08:58:25.862Z,13.53
2018-10-19T08:59:25.818Z,13.49
2018-10-19T09:00:25.777Z,13.54
2018-10-19T09:01:25.761Z,13.60
2018-10-19T09:02:25.774Z,13.55
2018-10-19T09:03:25.783Z,13.65
2018-10-19T09:04:25.724Z,13.80
2018-10-19T09:05:25.750Z,13.85
2018-10-19T09:06:25.702Z,13.82
2018-10-19T09:07:25.691Z,13.78
2018-10-19T09:08:25.894Z,13.78
2018-10-19T09:09:25.863Z,13.94
2018-10-19T09:10:25.723Z,13.93
2018-10-19T09:11:25.866Z,13.96
2018-10-19T09:12:25.746Z,14.00
2018-10-19T09:13:25.678Z,13.90
2018-10-19T09:14:25.682Z,13.96
2018-10-19T09:15:25.659Z,13.94
2018-10-19T09:16:25.690Z,13.80
2018-10-19T09:17:25.660Z,13.88
2018-10-19T09:18:25.637Z,13.80
2018-10-19T09:19:25.670Z,13.71
2018-10-19T09:20:25.586Z,13.76
2018-10-19T09:21:25.562Z,13.63
2018-10-19T09:22:25.658Z,13.54
2018-10-19T09:23:25.675Z,13.53
2018-10-19T09:24:25.647Z,13.47
2018-10-19T09:25:25.578Z,13.49
2018-10-19T09:26:25.570Z,13.55
2018-10-19T09:27:25.514Z,13.65
2018-10-19T09:28:25.496Z,13.79
2018-10-19T09:29:25.625Z,13.91
2018-10-19T09:30:25.526Z,14.16
2018-10-19T09:31:25.462Z,14.26
2018-10-19T09:32:25.441Z,14.28
2018-10-19T09:33:25.531Z,14.36
2018-10-19T09:34:25.471Z,14.33
2018-10-19T09:35:25.510Z,14.28
2018-10-19T09:36:25.710Z,14.19
2018-10-19T09:37:25.366Z,14.22
2018-10-19T09:38:25.352Z,14.11
2018-10-19T09:39:25.378Z,13.98
2018-10-19T09:40:25.371Z,13.94
2018-10-19T09:41:25.421Z,13.96
2018-10-19T09:42:25.308Z,13.96
2018-10-19T09:43:25.298Z,13.86
2018-10-19T09:44:25.287Z,13.83
2018-10-19T09:45:25.276Z,13.93
2018-10-19T09:46:25.285Z,14.04
2018-10-19T09:47:25.328Z,14.11
2018-10-19T09:48:25.248Z,14.00
2018-10-19T09:49:25.233Z,14.03
2018-10-19T09:50:25.222Z,13.96
2018-10-19T09:51:25.211Z,13.97
2018-10-19T09:52:25.243Z,14.01
2018-10-19T09:53:25.226Z,13.98
2018-10-19T09:54:25.183Z,14.03
2018-10-19T09:55:25.168Z,14.08
2018-10-19T09:56:25.160Z,14.22
2018-10-19T09:57:25.145Z,14.22
2018-10-19T09:58:25.165Z,14.26
2018-10-19T09:59:25.169Z,14.19
2018-10-19T10:00:25.119Z,14.23
2018-10-19T10:01:25.104Z,14.41
2018-10-19T10:02:25.092Z,14.38
2018-10-19T10:03:25.080Z,14.45
2018-10-19T10:04:25.093Z,14.46
2018-10-19T10:05:25.204Z,14.51
2018-10-19T10:06:25.055Z,14.49
2018-10-19T10:07:25.048Z,14.56
2018-10-19T10:08:25.033Z,14.49
2018-10-19T10:09:25.024Z,14.58
2018-10-19T10:10:25.058Z,14.53
2018-10-19T10:11:25.047Z,14.59
2018-10-19T10:12:24.992Z,14.61
2018-10-19T10:13:24.972Z,14.61
2018-10-19T10:14:24.969Z,14.71
2018-10-19T10:15:25.040Z,14.67
2018-10-19T10:16:24.941Z,14.71
2018-10-19T10:17:25.004Z,14.83
2018-10-19T10:18:24.924Z,14.85
2018-10-19T10:19:24.906Z,15.01
2018-10-19T10:20:24.897Z,15.05
2018-10-19T10:21:24.886Z,15.11
2018-10-19T10:22:24.877Z,15.17
2018-10-19T10:23:24.908Z,15.23
2018-10-19T10:24:24.873Z,15.27
2018-10-19T10:25:24.910Z,15.25
2018-10-19T10:26:24.837Z,15.32
2018-10-19T10:27:24.817Z,15.45
2018-10-19T10:28:24.810Z,15.33
2018-10-19T10:29:24.846Z,15.38
2018-10-19T10:30:24.789Z,15.54
2018-10-19T10:31:24.777Z,15.52
2018-10-19T10:32:24.883Z,15.51
2018-10-19T10:33:24.755Z,15.66
2018-10-19T10:34:24.748Z,15.66
2018-10-19T10:35:24.768Z,15.78
2018-10-19T10:36:24.726Z,15.77
2018-10-19T10:37:24.715Z,15.87
2018-10-19T10:38:24.700Z,15.88
2018-10-19T10:39:24.687Z,15.88
2018-10-19T10:40:24.678Z,15.85
2018-10-19T10:41:24.704Z,15.93
2018-10-19T10:42:24.668Z,16.02
2018-10-19T10:43:24.647Z,16.03
2018-10-19T10:44:24.637Z,16.00
2018-10-19T10:45:24.623Z,15.93
2018-10-19T10:46:24.611Z,15.84
2018-10-19T10:47:24.641Z,15.88
2018-10-19T10:48:24.593Z,15.91
2018-10-19T10:49:24.606Z,15.95
2018-10-19T10:50:24.570Z,15.93
2018-10-19T10:51:24.558Z,15.98
2018-10-19T10:52:24.547Z,15.98
2018-10-19T10:53:24.571Z,15.96
2018-10-19T10:54:24.521Z,15.85
2018-10-19T10:55:24.530Z,15.91
2018-10-19T10:56:24.524Z,15.76
2018-10-19T10:57:24.488Z,15.72
2018-10-19T10:58:24.479Z,15.77
2018-10-19T10:59:24.507Z,15.69
2018-10-19T11:00:24.457Z,15.77
2018-10-19T11:01:24.462Z,15.83
2018-10-19T11:02:24.435Z,15.73
2018-10-19T11:03:24.430Z,15.76
2018-10-19T11:04:24.416Z,15.84
2018-10-19T11:05:24.443Z,15.87
2018-10-19T11:06:24.389Z,15.88
2018-10-19T11:07:24.584Z,15.83
2018-10-19T11:08:24.367Z,15.85
2018-10-19T11:09:24.362Z,15.80
2018-10-19T11:10:24.347Z,15.90
2018-10-19T11:11:24.368Z,15.73
2018-10-19T11:12:24.326Z,15.68
2018-10-19T11:13:24.342Z,15.78
2018-10-19T11:14:24.346Z,15.68
2018-10-19T11:15:24.294Z,15.80
2018-10-19T11:16:24.281Z,15.84
2018-10-19T11:17:24.315Z,15.87
2018-10-19T11:18:24.260Z,15.93
2018-10-19T11:19:24.243Z,15.93
2018-10-19T11:20:24.233Z,15.80
2018-10-19T11:21:24.222Z,15.91
2018-10-19T11:22:24.235Z,15.87
2018-10-19T11:23:24.247Z,15.72
2018-10-19T11:24:24.200Z,15.62
2018-10-19T11:25:24.179Z,15.66
2018-10-19T11:26:24.174Z,15.63
2018-10-19T11:27:24.179Z,15.69
2018-10-19T11:28:24.178Z,15.70
2018-10-19T11:29:24.223Z,15.69
2018-10-19T11:30:24.133Z,15.77
2018-10-19T11:31:24.118Z,15.65
2018-10-19T11:32:24.102Z,15.72
2018-10-19T11:33:24.092Z,15.72
2018-10-19T11:34:24.166Z,15.66
2018-10-19T11:35:24.108Z,15.78
2018-10-19T11:36:24.073Z,15.73
2018-10-19T11:37:24.122Z,15.72
2018-10-19T11:38:24.037Z,15.77
2018-10-19T11:39:24.032Z,15.95
2018-10-19T11:40:24.021Z,15.83
2018-10-19T11:41:24.041Z,15.70
2018-10-19T11:42:24.013Z,15.76
2018-10-19T11:43:23.977Z,15.78
2018-10-19T11:44:23.972Z,15.87
2018-10-19T11:45:23.957Z,15.95
2018-10-19T11:46:23.954Z,15.99
2018-10-19T11:47:23.986Z,15.93
2018-10-19T11:48:23.947Z,15.96
2018-10-19T11:49:23.918Z,15.96
2018-10-19T11:50:23.911Z,16.02
2018-10-19T11:51:23.891Z,16.06
2018-10-19T11:52:23.880Z,16.14
2018-10-19T11:53:23.910Z,16.16
2018-10-19T11:54:23.884Z,16.18
2018-10-19T11:55:23.921Z,16.24
2018-10-19T11:56:23.834Z,16.25
2018-10-19T11:57:23.832Z,16.25
2018-10-19T11:58:23.812Z,16.29
2018-10-19T11:59:23.841Z,16.42
2018-10-19T12:00:23.789Z,16.43
2018-10-19T12:01:23.798Z,16.57
2018-10-19T12:02:23.771Z,16.62
2018-10-19T12:03:23.796Z,16.82
2018-10-19T12:04:23.760Z,16.99
2018-10-19T12:05:23.822Z,17.25
2018-10-19T12:06:23.730Z,17.28
2018-10-19T12:07:23.720Z,17.32
2018-10-19T12:08:23.710Z,17.53
2018-10-19T12:09:23.692Z,17.63
2018-10-19T12:10:23.689Z,18.03
2018-10-19T12:11:23.811Z,18.15
2018-10-19T12:12:23.663Z,18.30
2018-10-19T12:13:23.661Z,18.60
2018-10-19T12:14:23.642Z,18.83
2018-10-19T12:15:23.634Z,19.09
2018-10-19T12:16:23.860Z,19.37
2018-10-19T12:17:23.687Z,19.30
2018-10-19T12:18:23.626Z,19.62
2018-10-19T12:19:23.584Z,19.63
2018-10-19T12:20:23.588Z,20.04
2018-10-19T12:21:23.598Z,20.27
2018-10-19T12:22:23.556Z,20.55
2018-10-19T12:23:23.591Z,20.74
2018-10-19T12:24:23.530Z,21.04
2018-10-19T12:25:23.533Z,21.19
2018-10-19T12:26:23.510Z,21.29
2018-10-19T12:27:23.499Z,21.32
2018-10-19T12:28:23.508Z,21.37
2018-10-19T12:29:23.539Z,21.47
2018-10-19T12:30:23.470Z,21.26
2018-10-19T12:31:23.459Z,21.23
2018-10-19T12:32:23.470Z,21.00
2018-10-19T12:33:23.444Z,21.14
2018-10-19T12:34:23.428Z,21.56
2018-10-19T12:35:23.534Z,21.77
2018-10-19T12:36:23.418Z,21.96
2018-10-19T12:37:23.422Z,21.47
2018-10-19T12:38:23.381Z,21.47
2018-10-19T12:39:23.381Z,21.59
2018-10-19T12:40:23.373Z,21.48
2018-10-19T12:41:23.422Z,21.73
2018-10-19T12:42:23.359Z,21.88
2018-10-19T12:43:23.328Z,22.04
2018-10-19T12:44:23.322Z,22.06
2018-10-19T12:45:23.323Z,21.78
2018-10-19T12:46:23.302Z,21.37
2018-10-19T12:47:23.372Z,21.74
2018-10-19T12:48:23.287Z,22.13
2018-10-19T12:49:23.264Z,22.30
2018-10-19T12:50:23.254Z,22.22
2018-10-19T12:51:23.243Z,22.36
2018-10-19T12:52:23.231Z,22.61
2018-10-19T12:53:23.260Z,22.48
2018-10-19T12:54:23.290Z,22.49
2018-10-19T12:55:23.227Z,22.56
2018-10-19T12:56:23.189Z,22.53
2018-10-19T12:57:23.187Z,22.58
2018-10-19T12:58:23.175Z,22.67